sensor_id;sensor_type;location;lat;lon;timestamp;P1;durP1;ratioP1;P2;durP2;ratioP2
3185;SDS011;1604;53.700;10.252;2024-01-30T00:00:43;18.90;;;12.03;;
3185;SDS011;1604;53.700;10.252;2024-01-30T00:03:45;17.47;;;11.30;;
3185;SDS011;1604;53.700;10.252;2024-01-30T00:06:47;13.37;;;11.67;;
3185;SDS011;1604;53.700;10.252;2024-01-30T00:09:49;16.33;;;10.93;;
3185;SDS011;1604;53.700;10.252;2024-01-30T00:12:52;15.30;;;11.03;;
3185;SDS011;1604;53.700;10.252;2024-01-30T00:15:54;13.40;;;10.10;;
3185;SDS011;1604;53.700;10.252;2024-01-30T00:18:56;16.50;;;10.30;;
3185;SDS011;1604;53.700;10.252;2024-01-30T00:21:59;16.50;;;10.40;;
3185;SDS011;1604;53.700;10.252;2024-01-30T00:25:02;17.80;;;10.73;;
3185;SDS011;1604;53.700;10.252;2024-01-30T00:28:06;20.30;;;10.43;;
3185;SDS011;1604;53.700;10.252;2024-01-30T00:31:08;14.80;;;10.00;;
3185;SDS011;1604;53.700;10.252;2024-01-30T00:34:12;13.57;;;10.03;;
3185;SDS011;1604;53.700;10.252;2024-01-30T00:37:14;15.10;;;10.13;;
3185;SDS011;1604;53.700;10.252;2024-01-30T00:40:16;14.30;;;9.03;;
3185;SDS011;1604;53.700;10.252;2024-01-30T00:43:19;17.10;;;9.20;;
3185;SDS011;1604;53.700;10.252;2024-01-30T00:46:21;19.93;;;10.30;;
3185;SDS011;1604;53.700;10.252;2024-01-30T00:49:23;14.43;;;9.93;;
3185;SDS011;1604;53.700;10.252;2024-01-30T00:52:25;17.17;;;9.00;;
3185;SDS011;1604;53.700;10.252;2024-01-30T00:55:27;11.70;;;8.53;;
3185;SDS011;1604;53.700;10.252;2024-01-30T00:58:30;11.20;;;8.13;;
3185;SDS011;1604;53.700;10.252;2024-01-30T01:01:32;10.90;;;8.07;;
3185;SDS011;1604;53.700;10.252;2024-01-30T01:04:34;11.27;;;8.83;;
3185;SDS011;1604;53.700;10.252;2024-01-30T01:07:36;15.33;;;9.57;;
3185;SDS011;1604;53.700;10.252;2024-01-30T01:10:38;20.83;;;8.60;;
3185;SDS011;1604;53.700;10.252;2024-01-30T01:13:41;13.77;;;8.70;;
3185;SDS011;1604;53.700;10.252;2024-01-30T01:16:43;11.70;;;8.10;;
3185;SDS011;1604;53.700;10.252;2024-01-30T01:19:45;10.97;;;8.50;;
3185;SDS011;1604;53.700;10.252;2024-01-30T01:22:47;17.00;;;10.63;;
3185;SDS011;1604;53.700;10.252;2024-01-30T01:25:50;13.50;;;8.87;;
3185;SDS011;1604;53.700;10.252;2024-01-30T01:28:53;13.23;;;9.60;;
3185;SDS011;1604;53.700;10.252;2024-01-30T01:31:55;15.00;;;8.73;;
3185;SDS011;1604;53.700;10.252;2024-01-30T01:34:57;13.37;;;8.63;;
3185;SDS011;1604;53.700;10.252;2024-01-30T01:37:59;11.37;;;8.33;;
3185;SDS011;1604;53.700;10.252;2024-01-30T01:41:01;15.30;;;10.03;;
3185;SDS011;1604;53.700;10.252;2024-01-30T01:44:04;12.50;;;8.47;;
3185;SDS011;1604;53.700;10.252;2024-01-30T01:47:06;10.50;;;8.03;;
3185;SDS011;1604;53.700;10.252;2024-01-30T01:50:08;14.93;;;8.10;;
3185;SDS011;1604;53.700;10.252;2024-01-30T01:53:11;15.20;;;10.10;;
3185;SDS011;1604;53.700;10.252;2024-01-30T01:56:13;15.80;;;9.67;;
3185;SDS011;1604;53.700;10.252;2024-01-30T01:59:17;16.03;;;10.20;;
3185;SDS011;1604;53.700;10.252;2024-01-30T02:02:20;16.90;;;8.97;;
3185;SDS011;1604;53.700;10.252;2024-01-30T02:05:25;10.50;;;8.43;;
3185;SDS011;1604;53.700;10.252;2024-01-30T02:08:28;12.60;;;8.83;;
3185;SDS011;1604;53.700;10.252;2024-01-30T02:11:30;19.53;;;9.50;;
3185;SDS011;1604;53.700;10.252;2024-01-30T02:14:43;12.40;;;9.43;;
3185;SDS011;1604;53.700;10.252;2024-01-30T02:17:45;10.27;;;8.67;;
3185;SDS011;1604;53.700;10.252;2024-01-30T02:20:47;17.50;;;9.03;;
3185;SDS011;1604;53.700;10.252;2024-01-30T02:23:51;19.43;;;9.23;;
3185;SDS011;1604;53.700;10.252;2024-01-30T02:26:55;15.97;;;9.47;;
3185;SDS011;1604;53.700;10.252;2024-01-30T02:29:57;14.67;;;9.43;;
3185;SDS011;1604;53.700;10.252;2024-01-30T02:33:00;12.10;;;9.77;;
3185;SDS011;1604;53.700;10.252;2024-01-30T02:36:02;10.27;;;9.03;;
3185;SDS011;1604;53.700;10.252;2024-01-30T02:39:05;16.70;;;10.00;;
3185;SDS011;1604;53.700;10.252;2024-01-30T02:42:08;14.17;;;10.00;;
3185;SDS011;1604;53.700;10.252;2024-01-30T02:45:11;13.20;;;10.00;;
3185;SDS011;1604;53.700;10.252;2024-01-30T02:48:14;15.13;;;9.43;;
3185;SDS011;1604;53.700;10.252;2024-01-30T02:51:16;10.30;;;9.30;;
3185;SDS011;1604;53.700;10.252;2024-01-30T02:54:19;13.40;;;9.00;;
3185;SDS011;1604;53.700;10.252;2024-01-30T02:57:21;15.43;;;8.60;;
3185;SDS011;1604;53.700;10.252;2024-01-30T03:00:23;14.40;;;9.33;;
3185;SDS011;1604;53.700;10.252;2024-01-30T03:03:25;13.03;;;8.97;;
3185;SDS011;1604;53.700;10.252;2024-01-30T03:06:27;27.53;;;9.17;;
3185;SDS011;1604;53.700;10.252;2024-01-30T03:09:31;12.77;;;8.90;;
3185;SDS011;1604;53.700;10.252;2024-01-30T03:12:33;13.73;;;8.50;;
3185;SDS011;1604;53.700;10.252;2024-01-30T03:15:35;15.67;;;10.77;;
3185;SDS011;1604;53.700;10.252;2024-01-30T03:18:36;17.67;;;9.03;;
3185;SDS011;1604;53.700;10.252;2024-01-30T03:21:38;16.40;;;9.37;;
3185;SDS011;1604;53.700;10.252;2024-01-30T03:24:42;14.60;;;10.30;;
3185;SDS011;1604;53.700;10.252;2024-01-30T03:27:44;13.60;;;9.00;;
3185;SDS011;1604;53.700;10.252;2024-01-30T03:30:46;12.23;;;8.73;;
3185;SDS011;1604;53.700;10.252;2024-01-30T03:33:48;15.00;;;9.60;;
3185;SDS011;1604;53.700;10.252;2024-01-30T03:36:50;19.73;;;10.60;;
3185;SDS011;1604;53.700;10.252;2024-01-30T03:39:53;20.87;;;10.33;;
3185;SDS011;1604;53.700;10.252;2024-01-30T03:42:55;11.00;;;8.90;;
3185;SDS011;1604;53.700;10.252;2024-01-30T03:45:57;16.33;;;10.33;;
3185;SDS011;1604;53.700;10.252;2024-01-30T03:48:59;11.20;;;8.83;;
3185;SDS011;1604;53.700;10.252;2024-01-30T03:52:01;27.63;;;10.70;;
3185;SDS011;1604;53.700;10.252;2024-01-30T03:55:05;13.17;;;8.90;;
3185;SDS011;1604;53.700;10.252;2024-01-30T03:58:07;12.30;;;10.10;;
3185;SDS011;1604;53.700;10.252;2024-01-30T04:01:12;20.27;;;10.47;;
3185;SDS011;1604;53.700;10.252;2024-01-30T04:04:15;12.47;;;8.90;;
3185;SDS011;1604;53.700;10.252;2024-01-30T04:07:17;16.13;;;11.20;;
3185;SDS011;1604;53.700;10.252;2024-01-30T04:10:20;16.43;;;10.53;;
3185;SDS011;1604;53.700;10.252;2024-01-30T04:13:23;28.10;;;10.90;;
3185;SDS011;1604;53.700;10.252;2024-01-30T04:16:24;18.77;;;9.97;;
3185;SDS011;1604;53.700;10.252;2024-01-30T04:19:26;14.37;;;10.90;;
3185;SDS011;1604;53.700;10.252;2024-01-30T04:22:28;14.10;;;11.50;;
3185;SDS011;1604;53.700;10.252;2024-01-30T04:25:32;18.03;;;12.03;;
3185;SDS011;1604;53.700;10.252;2024-01-30T04:28:34;15.63;;;11.40;;
3185;SDS011;1604;53.700;10.252;2024-01-30T04:31:36;19.00;;;10.90;;
3185;SDS011;1604;53.700;10.252;2024-01-30T04:34:38;15.90;;;10.33;;
3185;SDS011;1604;53.700;10.252;2024-01-30T04:37:40;16.63;;;11.50;;
3185;SDS011;1604;53.700;10.252;2024-01-30T04:40:43;15.43;;;10.70;;
3185;SDS011;1604;53.700;10.252;2024-01-30T04:43:45;13.57;;;9.90;;
3185;SDS011;1604;53.700;10.252;2024-01-30T04:46:47;16.27;;;10.20;;
3185;SDS011;1604;53.700;10.252;2024-01-30T04:49:50;16.03;;;10.30;;
3185;SDS011;1604;53.700;10.252;2024-01-30T04:52:52;19.27;;;10.53;;
3185;SDS011;1604;53.700;10.252;2024-01-30T04:55:56;13.83;;;10.33;;
3185;SDS011;1604;53.700;10.252;2024-01-30T04:58:58;13.03;;;10.10;;
3185;SDS011;1604;53.700;10.252;2024-01-30T05:01:59;23.70;;;11.43;;
3185;SDS011;1604;53.700;10.252;2024-01-30T05:05:01;21.80;;;11.47;;
3185;SDS011;1604;53.700;10.252;2024-01-30T05:08:04;18.60;;;11.43;;
3185;SDS011;1604;53.700;10.252;2024-01-30T05:11:08;16.47;;;11.50;;
3185;SDS011;1604;53.700;10.252;2024-01-30T05:14:11;17.57;;;10.70;;
3185;SDS011;1604;53.700;10.252;2024-01-30T05:17:15;20.20;;;11.10;;
3185;SDS011;1604;53.700;10.252;2024-01-30T05:20:20;16.60;;;11.70;;
3185;SDS011;1604;53.700;10.252;2024-01-30T05:23:22;17.10;;;10.80;;
3185;SDS011;1604;53.700;10.252;2024-01-30T05:26:25;17.97;;;11.30;;
3185;SDS011;1604;53.700;10.252;2024-01-30T05:29:27;18.20;;;12.90;;
3185;SDS011;1604;53.700;10.252;2024-01-30T05:32:29;16.00;;;11.47;;
3185;SDS011;1604;53.700;10.252;2024-01-30T05:35:31;17.53;;;11.83;;
3185;SDS011;1604;53.700;10.252;2024-01-30T05:38:33;14.50;;;11.53;;
3185;SDS011;1604;53.700;10.252;2024-01-30T05:41:38;18.60;;;13.27;;
3185;SDS011;1604;53.700;10.252;2024-01-30T05:44:40;16.23;;;11.83;;
3185;SDS011;1604;53.700;10.252;2024-01-30T05:47:42;19.43;;;12.20;;
3185;SDS011;1604;53.700;10.252;2024-01-30T05:50:44;15.60;;;11.70;;
3185;SDS011;1604;53.700;10.252;2024-01-30T05:53:46;19.10;;;12.80;;
3185;SDS011;1604;53.700;10.252;2024-01-30T05:56:49;18.60;;;11.33;;
3185;SDS011;1604;53.700;10.252;2024-01-30T05:59:51;15.70;;;11.93;;
3185;SDS011;1604;53.700;10.252;2024-01-30T06:02:55;15.87;;;11.27;;
3185;SDS011;1604;53.700;10.252;2024-01-30T06:05:57;19.00;;;12.50;;
3185;SDS011;1604;53.700;10.252;2024-01-30T06:08:59;20.20;;;13.10;;
3185;SDS011;1604;53.700;10.252;2024-01-30T06:12:03;15.90;;;11.60;;
3185;SDS011;1604;53.700;10.252;2024-01-30T06:15:05;15.97;;;11.20;;
3185;SDS011;1604;53.700;10.252;2024-01-30T06:18:08;22.40;;;13.67;;
3185;SDS011;1604;53.700;10.252;2024-01-30T06:21:10;21.53;;;13.37;;
3185;SDS011;1604;53.700;10.252;2024-01-30T06:24:12;16.73;;;11.97;;
3185;SDS011;1604;53.700;10.252;2024-01-30T06:27:15;15.73;;;11.33;;
3185;SDS011;1604;53.700;10.252;2024-01-30T06:30:18;21.10;;;12.53;;
3185;SDS011;1604;53.700;10.252;2024-01-30T06:33:20;17.10;;;11.93;;
3185;SDS011;1604;53.700;10.252;2024-01-30T06:36:22;16.30;;;12.07;;
3185;SDS011;1604;53.700;10.252;2024-01-30T06:39:23;16.20;;;12.60;;
3185;SDS011;1604;53.700;10.252;2024-01-30T06:42:28;19.20;;;13.70;;
3185;SDS011;1604;53.700;10.252;2024-01-30T06:45:30;18.13;;;12.60;;
3185;SDS011;1604;53.700;10.252;2024-01-30T06:48:32;21.07;;;12.07;;
3185;SDS011;1604;53.700;10.252;2024-01-30T06:51:34;17.73;;;11.87;;
3185;SDS011;1604;53.700;10.252;2024-01-30T06:54:36;22.00;;;12.50;;
3185;SDS011;1604;53.700;10.252;2024-01-30T06:57:41;22.40;;;12.77;;
3185;SDS011;1604;53.700;10.252;2024-01-30T07:00:43;15.20;;;12.30;;
3185;SDS011;1604;53.700;10.252;2024-01-30T07:03:46;19.90;;;12.43;;
3185;SDS011;1604;53.700;10.252;2024-01-30T07:06:48;18.50;;;12.50;;
3185;SDS011;1604;53.700;10.252;2024-01-30T07:09:49;20.17;;;13.00;;
3185;SDS011;1604;53.700;10.252;2024-01-30T07:12:57;29.07;;;12.00;;
3185;SDS011;1604;53.700;10.252;2024-01-30T07:16:01;20.27;;;12.83;;
3185;SDS011;1604;53.700;10.252;2024-01-30T07:19:03;21.00;;;13.30;;
3185;SDS011;1604;53.700;10.252;2024-01-30T07:22:05;18.87;;;13.10;;
3185;SDS011;1604;53.700;10.252;2024-01-30T07:25:07;20.47;;;13.50;;
3185;SDS011;1604;53.700;10.252;2024-01-30T07:28:11;23.57;;;15.87;;
3185;SDS011;1604;53.700;10.252;2024-01-30T07:31:13;22.60;;;14.20;;
3185;SDS011;1604;53.700;10.252;2024-01-30T07:34:15;22.20;;;12.93;;
3185;SDS011;1604;53.700;10.252;2024-01-30T07:37:17;27.83;;;13.90;;
3185;SDS011;1604;53.700;10.252;2024-01-30T07:40:19;20.97;;;14.43;;
3185;SDS011;1604;53.700;10.252;2024-01-30T07:43:23;23.73;;;14.90;;
3185;SDS011;1604;53.700;10.252;2024-01-30T07:46:25;20.40;;;14.50;;
3185;SDS011;1604;53.700;10.252;2024-01-30T07:49:27;18.87;;;13.60;;
3185;SDS011;1604;53.700;10.252;2024-01-30T07:52:29;24.90;;;15.17;;
3185;SDS011;1604;53.700;10.252;2024-01-30T07:55:30;28.57;;;14.10;;
3185;SDS011;1604;53.700;10.252;2024-01-30T07:58:34;21.23;;;13.90;;
3185;SDS011;1604;53.700;10.252;2024-01-30T08:01:36;23.23;;;13.47;;
3185;SDS011;1604;53.700;10.252;2024-01-30T08:04:38;23.10;;;14.10;;
3185;SDS011;1604;53.700;10.252;2024-01-30T08:07:40;20.97;;;14.60;;
3185;SDS011;1604;53.700;10.252;2024-01-30T08:10:42;36.47;;;15.50;;
3185;SDS011;1604;53.700;10.252;2024-01-30T08:13:45;21.20;;;14.60;;
3185;SDS011;1604;53.700;10.252;2024-01-30T08:16:47;25.83;;;14.50;;
3185;SDS011;1604;53.700;10.252;2024-01-30T08:19:49;19.03;;;13.40;;
3185;SDS011;1604;53.700;10.252;2024-01-30T08:22:51;22.93;;;14.50;;
3185;SDS011;1604;53.700;10.252;2024-01-30T08:25:53;22.70;;;14.00;;
3185;SDS011;1604;53.700;10.252;2024-01-30T08:28:56;24.97;;;15.20;;
3185;SDS011;1604;53.700;10.252;2024-01-30T08:31:58;27.53;;;16.10;;
3185;SDS011;1604;53.700;10.252;2024-01-30T08:35:00;24.80;;;15.70;;
3185;SDS011;1604;53.700;10.252;2024-01-30T08:38:03;25.50;;;15.67;;
3185;SDS011;1604;53.700;10.252;2024-01-30T08:41:06;25.30;;;15.63;;
3185;SDS011;1604;53.700;10.252;2024-01-30T08:44:10;22.30;;;14.20;;
3185;SDS011;1604;53.700;10.252;2024-01-30T08:47:12;30.57;;;14.67;;
3185;SDS011;1604;53.700;10.252;2024-01-30T08:50:16;21.60;;;14.30;;
3185;SDS011;1604;53.700;10.252;2024-01-30T08:53:18;21.57;;;14.10;;
3185;SDS011;1604;53.700;10.252;2024-01-30T08:56:20;24.93;;;14.33;;
3185;SDS011;1604;53.700;10.252;2024-01-30T08:59:24;22.60;;;14.27;;
3185;SDS011;1604;53.700;10.252;2024-01-30T09:02:26;27.20;;;14.57;;
3185;SDS011;1604;53.700;10.252;2024-01-30T09:05:27;27.77;;;15.83;;
3185;SDS011;1604;53.700;10.252;2024-01-30T09:08:29;28.23;;;16.13;;
3185;SDS011;1604;53.700;10.252;2024-01-30T09:11:31;28.67;;;15.20;;
3185;SDS011;1604;53.700;10.252;2024-01-30T09:14:35;22.83;;;15.37;;
3185;SDS011;1604;53.700;10.252;2024-01-30T09:17:37;24.10;;;14.70;;
3185;SDS011;1604;53.700;10.252;2024-01-30T09:20:39;19.60;;;14.17;;
3185;SDS011;1604;53.700;10.252;2024-01-30T09:23:41;26.20;;;15.50;;
3185;SDS011;1604;53.700;10.252;2024-01-30T09:26:42;27.37;;;15.30;;
3185;SDS011;1604;53.700;10.252;2024-01-30T09:29:46;35.97;;;15.03;;
3185;SDS011;1604;53.700;10.252;2024-01-30T09:32:48;31.20;;;15.27;;
3185;SDS011;1604;53.700;10.252;2024-01-30T09:35:50;24.20;;;15.83;;
3185;SDS011;1604;53.700;10.252;2024-01-30T09:38:53;25.07;;;14.77;;
3185;SDS011;1604;53.700;10.252;2024-01-30T09:41:55;25.10;;;14.40;;
3185;SDS011;1604;53.700;10.252;2024-01-30T09:45:04;20.30;;;15.57;;
3185;SDS011;1604;53.700;10.252;2024-01-30T09:48:07;21.57;;;14.10;;
3185;SDS011;1604;53.700;10.252;2024-01-30T09:51:09;22.87;;;13.80;;
3185;SDS011;1604;53.700;10.252;2024-01-30T09:54:13;24.63;;;15.43;;
3185;SDS011;1604;53.700;10.252;2024-01-30T09:57:16;21.57;;;14.10;;
3185;SDS011;1604;53.700;10.252;2024-01-30T10:00:20;25.20;;;14.33;;
3185;SDS011;1604;53.700;10.252;2024-01-30T10:03:27;23.43;;;13.73;;
3185;SDS011;1604;53.700;10.252;2024-01-30T10:06:29;28.50;;;15.90;;
3185;SDS011;1604;53.700;10.252;2024-01-30T10:09:31;27.17;;;15.80;;
3185;SDS011;1604;53.700;10.252;2024-01-30T10:12:34;24.70;;;14.50;;
3185;SDS011;1604;53.700;10.252;2024-01-30T10:15:38;22.50;;;13.57;;
3185;SDS011;1604;53.700;10.252;2024-01-30T10:18:41;20.80;;;13.30;;
3185;SDS011;1604;53.700;10.252;2024-01-30T10:21:43;22.77;;;14.17;;
3185;SDS011;1604;53.700;10.252;2024-01-30T10:24:45;19.60;;;13.87;;
3185;SDS011;1604;53.700;10.252;2024-01-30T10:27:47;22.57;;;14.90;;
3185;SDS011;1604;53.700;10.252;2024-01-30T10:30:58;18.60;;;13.43;;
3185;SDS011;1604;53.700;10.252;2024-01-30T10:34:00;24.30;;;14.37;;
3185;SDS011;1604;53.700;10.252;2024-01-30T10:37:06;22.53;;;13.63;;
3185;SDS011;1604;53.700;10.252;2024-01-30T10:40:13;20.30;;;15.30;;
3185;SDS011;1604;53.700;10.252;2024-01-30T10:43:15;21.73;;;13.77;;
3185;SDS011;1604;53.700;10.252;2024-01-30T10:46:25;22.83;;;13.77;;
3185;SDS011;1604;53.700;10.252;2024-01-30T10:49:31;23.97;;;13.17;;
3185;SDS011;1604;53.700;10.252;2024-01-30T10:52:33;23.03;;;12.27;;
3185;SDS011;1604;53.700;10.252;2024-01-30T10:55:35;19.20;;;14.20;;
3185;SDS011;1604;53.700;10.252;2024-01-30T10:58:40;22.20;;;14.50;;
3185;SDS011;1604;53.700;10.252;2024-01-30T11:01:43;19.67;;;13.90;;
3185;SDS011;1604;53.700;10.252;2024-01-30T11:04:46;23.73;;;13.10;;
3185;SDS011;1604;53.700;10.252;2024-01-30T11:07:48;26.00;;;15.10;;
3185;SDS011;1604;53.700;10.252;2024-01-30T11:10:54;23.40;;;13.73;;
3185;SDS011;1604;53.700;10.252;2024-01-30T11:14:00;21.27;;;14.40;;
3185;SDS011;1604;53.700;10.252;2024-01-30T11:17:04;27.10;;;14.90;;
3185;SDS011;1604;53.700;10.252;2024-01-30T11:20:09;17.33;;;13.10;;
3185;SDS011;1604;53.700;10.252;2024-01-30T11:23:13;26.03;;;14.10;;
3185;SDS011;1604;53.700;10.252;2024-01-30T11:26:16;17.73;;;12.37;;
3185;SDS011;1604;53.700;10.252;2024-01-30T11:29:24;17.00;;;12.10;;
3185;SDS011;1604;53.700;10.252;2024-01-30T11:32:28;20.03;;;13.57;;
3185;SDS011;1604;53.700;10.252;2024-01-30T11:35:31;30.40;;;12.73;;
3185;SDS011;1604;53.700;10.252;2024-01-30T11:38:34;21.13;;;13.73;;
3185;SDS011;1604;53.700;10.252;2024-01-30T11:41:36;18.87;;;13.10;;
3185;SDS011;1604;53.700;10.252;2024-01-30T11:44:39;19.97;;;13.07;;
3185;SDS011;1604;53.700;10.252;2024-01-30T11:47:42;23.80;;;12.97;;
3185;SDS011;1604;53.700;10.252;2024-01-30T11:50:44;18.07;;;12.57;;
3185;SDS011;1604;53.700;10.252;2024-01-30T11:53:49;19.67;;;13.63;;
3185;SDS011;1604;53.700;10.252;2024-01-30T11:56:51;19.13;;;11.20;;
3185;SDS011;1604;53.700;10.252;2024-01-30T11:59:53;22.30;;;14.30;;
3185;SDS011;1604;53.700;10.252;2024-01-30T12:02:57;18.40;;;12.03;;
3185;SDS011;1604;53.700;10.252;2024-01-30T12:06:00;22.60;;;13.43;;
3185;SDS011;1604;53.700;10.252;2024-01-30T12:09:05;18.27;;;11.30;;
3185;SDS011;1604;53.700;10.252;2024-01-30T12:12:08;20.47;;;12.17;;
3185;SDS011;1604;53.700;10.252;2024-01-30T12:15:12;16.23;;;11.57;;
3185;SDS011;1604;53.700;10.252;2024-01-30T12:18:18;16.50;;;12.53;;
3185;SDS011;1604;53.700;10.252;2024-01-30T12:21:20;16.47;;;12.53;;
3185;SDS011;1604;53.700;10.252;2024-01-30T12:24:22;15.93;;;12.50;;
3185;SDS011;1604;53.700;10.252;2024-01-30T12:27:24;19.30;;;12.40;;
3185;SDS011;1604;53.700;10.252;2024-01-30T12:30:27;19.77;;;12.50;;
3185;SDS011;1604;53.700;10.252;2024-01-30T12:33:31;21.80;;;12.50;;
3185;SDS011;1604;53.700;10.252;2024-01-30T12:36:33;18.63;;;13.00;;
3185;SDS011;1604;53.700;10.252;2024-01-30T12:39:35;17.90;;;11.77;;
3185;SDS011;1604;53.700;10.252;2024-01-30T12:42:37;23.00;;;12.90;;
3185;SDS011;1604;53.700;10.252;2024-01-30T12:45:40;21.70;;;12.70;;
3185;SDS011;1604;53.700;10.252;2024-01-30T12:48:44;14.67;;;12.00;;
3185;SDS011;1604;53.700;10.252;2024-01-30T12:51:46;15.53;;;11.60;;
3185;SDS011;1604;53.700;10.252;2024-01-30T12:54:48;17.60;;;12.77;;
3185;SDS011;1604;53.700;10.252;2024-01-30T12:57:50;18.33;;;12.60;;
3185;SDS011;1604;53.700;10.252;2024-01-30T13:00:52;22.70;;;14.47;;
3185;SDS011;1604;53.700;10.252;2024-01-30T13:03:56;23.90;;;14.20;;
3185;SDS011;1604;53.700;10.252;2024-01-30T13:06:58;19.43;;;12.97;;
3185;SDS011;1604;53.700;10.252;2024-01-30T13:10:02;20.10;;;13.77;;
3185;SDS011;1604;53.700;10.252;2024-01-30T13:13:04;18.67;;;12.30;;
3185;SDS011;1604;53.700;10.252;2024-01-30T13:16:06;17.40;;;11.83;;
3185;SDS011;1604;53.700;10.252;2024-01-30T13:19:10;20.40;;;12.93;;
3185;SDS011;1604;53.700;10.252;2024-01-30T13:22:12;15.30;;;12.17;;
3185;SDS011;1604;53.700;10.252;2024-01-30T13:25:14;19.23;;;13.17;;
3185;SDS011;1604;53.700;10.252;2024-01-30T13:28:16;16.57;;;12.10;;
3185;SDS011;1604;53.700;10.252;2024-01-30T13:31:18;19.40;;;12.53;;
3185;SDS011;1604;53.700;10.252;2024-01-30T13:34:22;22.37;;;15.43;;
3185;SDS011;1604;53.700;10.252;2024-01-30T13:37:26;20.33;;;14.37;;
3185;SDS011;1604;53.700;10.252;2024-01-30T13:40:28;19.93;;;12.83;;
3185;SDS011;1604;53.700;10.252;2024-01-30T13:43:33;19.63;;;13.83;;
3185;SDS011;1604;53.700;10.252;2024-01-30T13:46:35;17.10;;;13.70;;
3185;SDS011;1604;53.700;10.252;2024-01-30T13:49:39;23.97;;;12.70;;
3185;SDS011;1604;53.700;10.252;2024-01-30T13:52:41;22.10;;;13.33;;
3185;SDS011;1604;53.700;10.252;2024-01-30T13:55:43;24.27;;;12.27;;
3185;SDS011;1604;53.700;10.252;2024-01-30T13:58:45;20.00;;;12.43;;
3185;SDS011;1604;53.700;10.252;2024-01-30T14:01:47;21.10;;;13.57;;
3185;SDS011;1604;53.700;10.252;2024-01-30T14:04:53;18.97;;;12.83;;
3185;SDS011;1604;53.700;10.252;2024-01-30T14:07:55;20.47;;;12.90;;
3185;SDS011;1604;53.700;10.252;2024-01-30T14:10:58;19.30;;;13.03;;
3185;SDS011;1604;53.700;10.252;2024-01-30T14:14:00;15.83;;;12.30;;
3185;SDS011;1604;53.700;10.252;2024-01-30T14:17:02;16.80;;;12.70;;
3185;SDS011;1604;53.700;10.252;2024-01-30T14:20:08;16.73;;;12.93;;
3185;SDS011;1604;53.700;10.252;2024-01-30T14:23:11;22.67;;;13.00;;
3185;SDS011;1604;53.700;10.252;2024-01-30T14:26:13;23.60;;;12.80;;
3185;SDS011;1604;53.700;10.252;2024-01-30T14:29:15;19.60;;;12.90;;
3185;SDS011;1604;53.700;10.252;2024-01-30T14:32:16;19.80;;;13.43;;
3185;SDS011;1604;53.700;10.252;2024-01-30T14:35:20;20.37;;;12.80;;
3185;SDS011;1604;53.700;10.252;2024-01-30T14:38:22;18.70;;;12.43;;
3185;SDS011;1604;53.700;10.252;2024-01-30T14:41:25;19.37;;;13.67;;
3185;SDS011;1604;53.700;10.252;2024-01-30T14:44:27;19.53;;;12.23;;
3185;SDS011;1604;53.700;10.252;2024-01-30T14:47:29;23.13;;;12.27;;
3185;SDS011;1604;53.700;10.252;2024-01-30T14:50:32;17.60;;;12.57;;
3185;SDS011;1604;53.700;10.252;2024-01-30T14:53:34;17.20;;;11.53;;
3185;SDS011;1604;53.700;10.252;2024-01-30T14:56:36;21.07;;;12.30;;
3185;SDS011;1604;53.700;10.252;2024-01-30T14:59:38;15.33;;;12.30;;
3185;SDS011;1604;53.700;10.252;2024-01-30T15:02:40;19.80;;;11.80;;
3185;SDS011;1604;53.700;10.252;2024-01-30T15:05:44;21.33;;;12.20;;
3185;SDS011;1604;53.700;10.252;2024-01-30T15:08:46;26.00;;;11.50;;
3185;SDS011;1604;53.700;10.252;2024-01-30T15:11:48;17.20;;;12.50;;
3185;SDS011;1604;53.700;10.252;2024-01-30T15:14:50;21.10;;;12.80;;
3185;SDS011;1604;53.700;10.252;2024-01-30T15:17:52;19.00;;;12.30;;
3185;SDS011;1604;53.700;10.252;2024-01-30T15:20:55;19.23;;;11.90;;
3185;SDS011;1604;53.700;10.252;2024-01-30T15:23:57;20.30;;;12.77;;
3185;SDS011;1604;53.700;10.252;2024-01-30T15:26:59;20.30;;;11.67;;
3185;SDS011;1604;53.700;10.252;2024-01-30T15:30:02;15.33;;;10.80;;
3185;SDS011;1604;53.700;10.252;2024-01-30T15:33:04;24.17;;;12.87;;
3185;SDS011;1604;53.700;10.252;2024-01-30T15:36:08;14.17;;;10.47;;
3185;SDS011;1604;53.700;10.252;2024-01-30T15:39:14;23.03;;;13.00;;
3185;SDS011;1604;53.700;10.252;2024-01-30T15:42:17;22.10;;;12.20;;
3185;SDS011;1604;53.700;10.252;2024-01-30T15:45:19;21.40;;;12.97;;
3185;SDS011;1604;53.700;10.252;2024-01-30T15:48:22;19.80;;;12.87;;
3185;SDS011;1604;53.700;10.252;2024-01-30T15:51:25;19.17;;;13.30;;
3185;SDS011;1604;53.700;10.252;2024-01-30T15:54:27;25.20;;;12.30;;
3185;SDS011;1604;53.700;10.252;2024-01-30T15:57:29;19.23;;;11.70;;
3185;SDS011;1604;53.700;10.252;2024-01-30T16:00:31;18.03;;;12.37;;
3185;SDS011;1604;53.700;10.252;2024-01-30T16:03:33;22.03;;;11.57;;
3185;SDS011;1604;53.700;10.252;2024-01-30T16:06:37;21.83;;;10.63;;
3185;SDS011;1604;53.700;10.252;2024-01-30T16:09:39;19.97;;;12.73;;
3185;SDS011;1604;53.700;10.252;2024-01-30T16:12:42;18.27;;;12.50;;
3185;SDS011;1604;53.700;10.252;2024-01-30T16:15:45;23.30;;;13.03;;
3185;SDS011;1604;53.700;10.252;2024-01-30T16:18:47;16.43;;;11.47;;
3185;SDS011;1604;53.700;10.252;2024-01-30T16:21:50;19.60;;;12.77;;
3185;SDS011;1604;53.700;10.252;2024-01-30T16:24:52;19.20;;;11.83;;
3185;SDS011;1604;53.700;10.252;2024-01-30T16:27:54;23.07;;;14.43;;
3185;SDS011;1604;53.700;10.252;2024-01-30T16:30:56;23.47;;;13.37;;
3185;SDS011;1604;53.700;10.252;2024-01-30T16:34:00;19.60;;;11.87;;
3185;SDS011;1604;53.700;10.252;2024-01-30T16:37:04;21.33;;;13.33;;
3185;SDS011;1604;53.700;10.252;2024-01-30T16:40:07;17.53;;;12.23;;
3185;SDS011;1604;53.700;10.252;2024-01-30T16:43:09;20.40;;;12.57;;
3185;SDS011;1604;53.700;10.252;2024-01-30T16:46:12;27.10;;;14.80;;
3185;SDS011;1604;53.700;10.252;2024-01-30T16:49:14;22.63;;;14.00;;
3185;SDS011;1604;53.700;10.252;2024-01-30T16:52:18;23.70;;;13.40;;
3185;SDS011;1604;53.700;10.252;2024-01-30T16:55:21;19.97;;;14.00;;
3185;SDS011;1604;53.700;10.252;2024-01-30T16:58:25;21.00;;;13.60;;
3185;SDS011;1604;53.700;10.252;2024-01-30T17:01:27;20.73;;;12.50;;
3185;SDS011;1604;53.700;10.252;2024-01-30T17:04:29;16.30;;;12.13;;
3185;SDS011;1604;53.700;10.252;2024-01-30T17:07:34;22.10;;;14.17;;
3185;SDS011;1604;53.700;10.252;2024-01-30T17:10:36;18.40;;;12.83;;
3185;SDS011;1604;53.700;10.252;2024-01-30T17:13:38;21.93;;;12.53;;
3185;SDS011;1604;53.700;10.252;2024-01-30T17:16:40;24.57;;;13.50;;
3185;SDS011;1604;53.700;10.252;2024-01-30T17:19:43;20.13;;;13.87;;
3185;SDS011;1604;53.700;10.252;2024-01-30T17:22:46;21.17;;;13.40;;
3185;SDS011;1604;53.700;10.252;2024-01-30T17:25:48;15.23;;;12.10;;
3185;SDS011;1604;53.700;10.252;2024-01-30T17:28:50;19.57;;;12.93;;
3185;SDS011;1604;53.700;10.252;2024-01-30T17:31:52;20.67;;;13.63;;
3185;SDS011;1604;53.700;10.252;2024-01-30T17:34:54;21.80;;;12.77;;
3185;SDS011;1604;53.700;10.252;2024-01-30T17:37:59;24.53;;;15.03;;
3185;SDS011;1604;53.700;10.252;2024-01-30T17:41:02;16.77;;;13.30;;
3185;SDS011;1604;53.700;10.252;2024-01-30T17:44:04;21.13;;;13.90;;
3185;SDS011;1604;53.700;10.252;2024-01-30T17:47:06;25.60;;;14.93;;
3185;SDS011;1604;53.700;10.252;2024-01-30T17:50:08;23.83;;;12.57;;
3185;SDS011;1604;53.700;10.252;2024-01-30T17:53:12;19.23;;;11.70;;
3185;SDS011;1604;53.700;10.252;2024-01-30T17:56:14;20.10;;;13.63;;
3185;SDS011;1604;53.700;10.252;2024-01-30T17:59:19;22.80;;;13.60;;
3185;SDS011;1604;53.700;10.252;2024-01-30T18:02:23;17.47;;;13.23;;
3185;SDS011;1604;53.700;10.252;2024-01-30T18:05:25;20.97;;;13.10;;